Time;durP1;ratioP1;P1;durP2;ratioP2;P2;SDS_P1;SDS_P2;PMS_P1;PMS_P2;Temp;Humidity;BMP_temperature;BMP_pressure;BME280_temperature;BME280_humidity;BME280_pressure;Samples;Min_cycle;Max_cycle;Signal;HPM_P1;HPM_P2
2021/11/09 00:00:16;;;;;;;29.23;8.75;;;11.20;99.90;;;11.45;73.74;102339.53;4826679;29;20063;-68
2021/11/09 00:02:45;;;;;;;28.02;9.20;;;11.20;99.90;;;11.42;73.66;102342.09;4826545;29;20077;-68
2021/11/09 00:05:17;;;;;;;29.05;8.95;;;11.10;99.90;;;11.42;73.55;102342.09;4810144;29;20070;-68
2021/11/09 00:07:49;;;;;;;27.23;8.25;;;11.10;99.90;;;11.41;73.71;102342.09;4826184;29;20054;-67
2021/11/09 00:10:19;;;;;;;27.25;9.82;;;11.10;99.90;;;11.40;73.80;102341.19;4826291;29;20142;-67
2021/11/09 00:12:52;;;;;;;24.80;8.93;;;11.10;99.90;;;11.42;73.81;102342.09;4826120;29;20057;-69
2021/11/09 00:15:24;;;;;;;25.02;9.20;;;11.10;99.90;;;11.44;73.85;102342.16;4826133;29;20082;-69
2021/11/09 00:17:56;;;;;;;25.00;8.52;;;11.10;99.90;;;11.48;73.63;102339.56;4826265;29;20056;-68
2021/11/09 00:20:29;;;;;;;27.90;9.68;;;11.20;99.90;;;11.43;73.90;102340.34;4826058;29;20069;-68
2021/11/09 00:22:58;;;;;;;25.10;8.98;;;11.10;99.90;;;11.39;73.95;102331.47;4825946;29;20402;-68
2021/11/09 00:25:27;;;;;;;23.00;9.00;;;11.10;99.90;;;11.38;73.84;102337.63;4825842;29;20089;-68
2021/11/09 00:27:57;;;;;;;26.40;9.45;;;11.10;99.90;;;11.33;73.98;102336.69;4825856;29;20050;-68
2021/11/09 00:30:30;;;;;;;19.98;7.75;;;11.10;99.90;;;11.28;73.45;102329.53;4825947;29;20099;-68
2021/11/09 00:32:59;;;;;;;21.02;8.10;;;11.00;99.90;;;11.17;73.33;102325.81;4825853;29;20046;-68
2021/11/09 00:35:31;;;;;;;19.90;7.85;;;10.90;99.90;;;10.98;73.13;102324.59;4826083;29;20111;-68
2021/11/09 00:38:04;;;;;;;19.73;8.48;;;10.70;99.90;;;10.75;73.91;102333.88;4826011;29;20171;-68
2021/11/09 00:40:35;;;;;;;18.27;9.00;;;10.50;99.90;;;10.41;74.56;102286.50;4826017;29;20046;-68
2021/11/09 00:43:08;;;;;;;24.55;9.70;;;10.40;99.90;;;10.60;75.26;102334.50;4826167;29;20043;-68
2021/11/09 00:45:38;;;;;;;26.50;9.18;;;10.30;99.90;;;10.62;76.16;102322.19;4825770;29;20050;-68
2021/11/09 00:48:06;;;;;;;27.58;9.38;;;10.30;99.90;;;10.53;76.17;102298.19;4825882;29;20080;-68
2021/11/09 00:50:36;;;;;;;30.38;9.98;;;10.40;99.90;;;10.72;76.26;102316.19;4809435;29;20451;-68
2021/11/09 00:53:07;;;;;;;27.80;10.32;;;10.40;99.90;;;10.77;76.28;102324.22;4825501;29;20078;-68
2021/11/09 00:55:36;;;;;;;30.15;10.88;;;10.50;99.90;;;10.69;76.50;102308.22;4825562;29;20072;-68
2021/11/09 00:58:07;;;;;;;28.45;9.77;;;10.50;99.90;;;10.82;76.42;102327.81;4809307;29;20047;-68
2021/11/09 01:00:36;;;;;;;30.23;9.02;;;10.50;99.90;;;10.84;76.22;102327.00;4825730;29;20058;-68
2021/11/09 01:03:08;;;;;;;28.73;8.95;;;10.60;99.90;;;10.87;76.22;102334.13;4825378;29;20043;-68
2021/11/09 01:05:37;;;;;;;26.40;9.35;;;10.60;99.90;;;10.86;75.84;102335.88;4825349;29;20513;-68
2021/11/09 01:08:09;;;;;;;35.08;9.82;;;10.60;99.90;;;10.89;75.75;102335.03;4825544;29;20133;-68
2021/11/09 01:10:41;;;;;;;34.72;10.02;;;10.60;99.90;;;10.71;75.29;102297.66;4824671;29;20075;-68
2021/11/09 01:13:12;;;;;;;37.15;10.85;;;10.70;99.90;;;10.81;75.36;102305.78;4825254;29;20050;-68
2021/11/09 01:15:48;;;;;;;35.72;10.68;;;10.70;99.90;;;11.02;75.10;102334.38;4824267;29;20115;-68
2021/11/09 01:18:21;;;;;;;30.30;9.80;;;10.70;99.90;;;10.89;75.14;102314.75;4825214;29;20046;-68
2021/11/09 01:20:50;;;;;;;30.80;9.25;;;10.70;99.90;;;10.94;75.04;102333.34;4825358;29;20061;-68
2021/11/09 01:23:19;;;;;;;24.60;9.48;;;10.70;99.90;;;10.53;75.15;102258.50;4825089;29;20046;-68
2021/11/09 01:25:48;;;;;;;26.17;9.43;;;10.60;99.90;;;10.86;75.04;102322.63;4824995;29;20041;-68
2021/11/09 01:28:19;;;;;;;36.10;9.75;;;10.60;99.90;;;10.77;75.26;102319.81;4824979;29;20058;-68
2021/11/09 01:30:48;;;;;;;33.28;9.73;;;10.50;99.90;;;10.74;75.56;102310.94;4825239;29;20065;-68
2021/11/09 01:33:18;;;;;;;30.98;10.68;;;10.50;99.90;;;10.64;75.50;102322.22;4824930;29;20054;-68
2021/11/09 01:35:47;;;;;;;27.95;10.38;;;10.40;99.90;;;10.66;75.86;102323.16;4825126;29;20054;-68
2021/11/09 01:38:16;;;;;;;32.47;10.13;;;10.40;99.90;;;10.61;75.68;102315.09;4825382;29;20058;-68
2021/11/09 01:40:45;;;;;;;32.03;10.75;;;10.40;99.90;;;10.60;75.32;102321.28;4824103;29;20057;-68
2021/11/09 01:43:15;;;;;;;30.42;10.35;;;10.30;99.90;;;10.55;75.71;102316.78;4825033;29;20118;-68
2021/11/09 01:45:45;;;;;;;33.65;10.93;;;10.30;99.90;;;10.51;75.69;102320.22;4824925;29;20039;-68
2021/11/09 01:48:14;;;;;;;31.27;10.10;;;10.30;99.90;;;10.52;76.12;102319.34;4825008;29;20509;-68
2021/11/09 01:50:47;;;;;;;32.15;11.07;;;10.20;99.90;;;10.54;76.17;102315.88;4824889;29;20146;-68
2021/11/09 01:53:16;;;;;;;31.98;11.57;;;10.30;99.90;;;10.54;76.12;102320.25;4825130;29;20057;-68
2021/11/09 01:55:46;;;;;;;28.88;10.98;;;10.30;99.90;;;10.54;76.20;102321.16;4824607;29;20046;-68
2021/11/09 01:58:17;;;;;;;34.70;11.27;;;10.30;99.90;;;10.54;76.09;102313.22;4824952;29;20102;-67
2021/11/09 02:00:51;;;;;;;28.00;10.63;;;10.30;99.90;;;10.55;76.14;102312.34;4824650;29;20119;-68
2021/11/09 02:03:20;;;;;;;27.67;11.15;;;10.30;99.90;;;10.58;75.98;102316.81;4824573;29;20078;-68
2021/11/09 02:05:50;;;;;;;29.15;10.68;;;10.30;99.90;;;10.37;75.55;102282.03;4824389;29;20046;-68
2021/11/09 02:08:19;;;;;;;27.52;10.85;;;10.30;99.90;;;10.39;75.59;102307.66;4824742;29;20501;-68
2021/11/09 02:10:49;;;;;;;28.15;10.63;;;10.20;99.90;;;10.29;75.72;102300.38;4824920;29;20050;-68
2021/11/09 02:13:19;;;;;;;26.70;11.27;;;10.10;99.90;;;10.09;76.38;102299.06;4824667;29;20107;-68
2021/11/09 02:15:49;;;;;;;;;;;9.90;99.90;;;9.92;77.07;102274.94;4824857;29;20050;-68
2021/11/09 02:18:19;;;;;;;41.40;11.60;;;9.90;99.90;;;9.94;77.14;102304.03;4824647;29;19929;-68
2021/11/09 02:20:56;;;;;;;39.30;12.70;;;9.80;99.90;;;9.91;78.48;102298.69;4808141;29;20148;-68
2021/11/09 02:23:25;;;;;;;32.42;12.27;;;9.70;99.90;;;9.91;78.36;102302.19;4824342;29;20050;-68
2021/11/09 02:25:54;;;;;;;40.70;12.85;;;9.70;99.90;;;9.92;78.25;102300.47;4824325;29;20557;-68
2021/11/09 02:28:23;;;;;;;47.88;12.38;;;9.70;99.90;;;9.89;78.38;102316.28;4824243;29;20050;-68
2021/11/09 02:30:52;;;;;;;40.30;12.63;;;9.70;99.90;;;9.83;78.54;102317.00;4824699;29;20088;-68
2021/11/09 02:33:21;;;;;;;38.05;13.52;;;9.70;99.90;;;9.84;78.85;102310.88;4824400;29;20050;-68
2021/11/09 02:35:51;;;;;;;35.28;13.23;;;9.70;99.90;;;9.78;79.18;102316.03;4807783;29;20050;-68
2021/11/09 02:38:20;;;;;;;37.10;12.57;;;9.60;99.90;;;9.74;79.15;102331.75;4824561;29;20081;-68
2021/11/09 02:40:49;;;;;;;47.63;13.73;;;9.60;99.90;;;9.60;79.37;102291.81;4824674;29;20105;-68
2021/11/09 02:43:19;;;;;;;34.65;12.50;;;9.50;99.90;;;9.75;79.31;102310.69;4824329;29;20126;-68
2021/11/09 02:46:03;;;;;;;38.78;13.48;;;9.50;99.90;;;9.61;78.58;102312.13;4824046;29;20055;-68
2021/11/09 02:48:33;;;;;;;37.13;12.77;;;9.50;99.90;;;9.51;78.65;102302.19;4824028;29;20496;-68
2021/11/09 02:51:08;;;;;;;39.22;13.00;;;9.40;99.90;;;9.50;79.28;102311.00;4824163;29;20042;-68
2021/11/09 02:53:40;;;;;;;34.92;13.18;;;9.40;99.90;;;9.36;79.69;102301.84;4824542;29;20054;-69
2021/11/09 02:56:14;;;;;;;40.88;13.90;;;9.30;99.90;;;9.23;80.67;102294.50;4824200;29;20120;-69
2021/11/09 02:58:49;;;;;;;39.85;14.88;;;9.20;99.90;;;9.26;81.06;102299.84;4824334;29;20097;-68
2021/11/09 03:01:23;;;;;;;32.28;14.50;;;9.20;99.90;;;9.28;80.97;102300.75;4807902;29;20557;-68
2021/11/09 03:03:58;;;;;;;45.30;14.75;;;9.20;99.90;;;9.26;81.29;102310.41;4824412;29;20085;-68
2021/11/09 03:06:32;;;;;;;36.17;14.90;;;9.10;99.90;;;9.14;81.87;102286.34;4823775;29;20047;-68
2021/11/09 03:09:07;;;;;;;39.90;15.88;;;9.10;99.90;;;9.32;81.41;102304.38;4824322;29;20055;-68
2021/11/09 03:11:41;;;;;;;41.38;15.00;;;9.20;99.90;;;9.21;81.70;102298.84;4824319;29;20171;-68
2021/11/09 03:14:10;;;;;;;47.22;15.40;;;9.20;99.90;;;9.35;81.97;102309.75;4823832;29;20050;-68
2021/11/09 03:16:41;;;;;;;41.17;14.50;;;9.20;99.90;;;9.34;82.04;102314.13;4824257;29;20218;-68
2021/11/09 03:19:20;;;;;;;39.38;15.05;;;9.30;99.90;;;9.37;81.65;102313.31;4824049;29;20042;-68
2021/11/09 03:44:21;;;;;;;39.40;15.35;;;9.10;99.90;;;9.23;80.59;102334.09;4826617;29;20103;-68
2021/11/09 03:46:56;;;;;;;37.38;15.93;;;9.10;99.90;;;9.32;79.91;102336.06;4826526;29;20051;-68
2021/11/09 03:49:29;;;;;;;41.85;14.88;;;9.10;99.90;;;9.41;80.14;102329.25;4826492;29;20055;-68
2021/11/09 03:52:01;;;;;;;44.13;16.23;;;9.20;99.90;;;9.31;80.54;102324.59;4826638;29;20078;-68
2021/11/09 03:54:31;;;;;;;44.47;16.13;;;9.20;99.90;;;9.06;80.52;102311.66;4826692;29;20118;-68
2021/11/09 03:57:07;;;;;;;44.67;18.50;;;9.00;99.90;;;8.92;81.93;102303.38;4826717;29;20110;-69
2021/11/09 03:59:47;;;;;;;41.05;18.73;;;8.90;99.90;;;8.88;82.82;102305.94;4826556;29;20055;-69
2021/11/09 04:02:23;;;;;;;49.08;20.20;;;8.80;99.90;;;8.86;83.00;102302.34;4826567;29;20091;-69
2021/11/09 04:04:54;;;;;;;59.58;21.35;;;8.70;99.90;;;8.96;83.29;102315.81;4826305;29;20119;-69
2021/11/09 04:07:28;;;;;;;;;;;8.80;99.90;;;8.81;84.08;102302.22;4826890;29;20099;-69
2021/11/09 04:10:12;;;;;;;51.33;19.83;;;8.80;99.90;;;8.76;83.82;102305.59;4826583;29;19981;-69
2021/11/09 04:12:50;;;;;;;45.90;19.90;;;8.70;99.90;;;8.69;84.60;102287.84;4826202;29;20092;-69
2021/11/09 04:21:00;;;;;;;49.90;20.25;;;9.00;99.90;;;9.26;83.85;102318.31;4816599;29;20066;-69
2021/11/09 04:23:58;;;;;;;54.85;20.48;;;9.10;99.90;;;9.35;83.57;102315.03;4826048;29;20046;-69
2021/11/09 04:29:34;;;;;;;47.42;18.52;;;9.20;99.90;;;9.58;82.98;102329.66;4821440;29;20070;-69
2021/11/09 04:32:20;;;;;;;48.53;18.83;;;9.40;99.90;;;9.67;82.67;102322.81;4826103;29;20157;-69
2021/11/09 04:52:07;;;;;;;45.90;17.58;;;9.70;99.90;;;9.34;82.77;102208.50;4825602;29;20489;-69
2021/11/09 05:03:04;;;;;;;41.00;18.45;;;9.90;99.90;;;10.02;83.79;102340.34;4825683;29;20110;-69
2021/11/09 05:11:07;;;;;;;53.25;19.10;;;9.90;99.90;;;10.14;83.41;102352.97;4825326;29;20095;-70
2021/11/09 05:13:35;;;;;;;42.35;17.67;;;10.00;99.90;;;10.12;83.69;102351.16;4825477;29;20044;-70
2021/11/09 05:16:06;;;;;;;44.80;18.35;;;10.00;99.90;;;10.06;84.18;102343.94;4825718;29;20054;-71
2021/11/09 05:18:35;;;;;;;44.28;17.38;;;9.90;99.90;;;9.95;84.39;102327.84;4825216;29;20054;-72
2021/11/09 05:21:03;;;;;;;41.28;17.67;;;9.90;99.90;;;10.04;84.47;102348.31;4825297;29;20401;-69
2021/11/09 05:23:32;;;;;;;45.58;17.05;;;9.90;99.90;;;9.96;84.36;102324.34;4825761;29;20054;-71
2021/11/09 05:26:00;;;;;;;50.22;17.73;;;9.90;99.90;;;10.08;84.73;102350.16;4825299;29;20039;-71
2021/11/09 05:28:28;;;;;;;43.40;17.20;;;9.90;99.90;;;10.14;84.35;102350.31;4824926;29;20046;-71
2021/11/09 05:30:57;;;;;;;41.83;17.25;;;9.90;99.90;;;10.23;84.05;102357.53;4825242;29;20137;-71
2021/11/09 05:33:27;;;;;;;42.70;16.05;;;10.00;99.90;;;10.21;84.60;102354.88;4824921;29;20068;-71
2021/11/09 05:35:57;;;;;;;40.65;15.77;;;10.00;99.90;;;10.21;84.37;102356.63;4823933;29;20666;-71
2021/11/09 05:38:29;;;;;;;34.70;15.88;;;10.00;99.90;;;10.32;84.28;102355.97;4825489;29;20115;-72
2021/11/09 05:41:04;;;;;;;44.75;16.42;;;10.10;99.90;;;10.34;84.10;102358.66;4824892;29;20073;-71
2021/11/09 05:43:33;;;;;;;50.70;16.17;;;10.10;99.90;;;10.40;84.27;102367.59;4825113;29;20104;-72
2021/11/09 05:46:01;;;;;;;42.95;16.40;;;10.20;99.90;;;10.35;84.07;102360.44;4825523;29;20126;-71
2021/11/09 05:48:31;;;;;;;41.25;16.13;;;10.20;99.90;;;10.34;84.05;102366.56;4824626;29;20047;-71
2021/11/09 05:50:59;;;;;;;39.20;15.98;;;10.10;99.90;;;10.18;84.11;102340.69;4824801;29;20046;-71
2021/11/09 05:53:28;;;;;;;50.60;17.77;;;10.20;99.90;;;10.40;83.97;102369.34;4825292;29;20197;-71
2021/11/09 05:55:56;;;;;;;45.85;18.13;;;10.20;99.90;;;10.43;84.04;102361.50;4824398;29;20050;-71
2021/11/09 05:58:24;;;;;;;49.05;18.33;;;10.20;99.90;;;10.45;84.07;102375.66;4824563;29;20132;-71
2021/11/09 06:00:53;;;;;;;53.75;19.02;;;10.20;99.90;;;10.53;83.95;102379.34;4824860;29;20050;-72
2021/11/09 06:03:23;;;;;;;46.03;18.42;;;10.30;99.90;;;10.61;83.70;102375.06;4823540;29;20055;-73
2021/11/09 06:05:55;;;;;;;46.45;19.58;;;10.40;99.90;;;10.62;83.68;102369.84;4824823;29;20054;-71
2021/11/09 06:08:24;;;;;;;55.80;19.75;;;10.40;99.90;;;10.70;83.48;102367.31;4808148;29;20074;-71
2021/11/09 06:10:52;;;;;;;47.72;19.08;;;10.40;99.90;;;10.73;83.64;102376.22;4824442;29;20106;-71
2021/11/09 06:13:21;;;;;;;47.13;19.15;;;10.50;99.90;;;10.59;83.70;102348.59;4824384;29;20067;-71
2021/11/09 06:15:49;;;;;;;55.00;20.20;;;10.50;99.90;;;10.77;83.65;102366.56;4824591;29;20520;-71
2021/11/09 06:18:17;;;;;;;47.53;20.02;;;10.50;99.90;;;10.56;83.54;102339.69;4824362;29;20099;-71
2021/11/09 06:20:46;;;;;;;52.08;20.60;;;10.60;99.90;;;10.84;83.41;102376.41;4824342;29;20164;-71
2021/11/09 06:23:16;;;;;;;54.78;22.40;;;10.60;99.90;;;10.82;83.76;102386.06;4824287;29;20107;-71
2021/11/09 06:25:45;;;;;;;54.35;21.30;;;10.60;99.90;;;10.65;83.99;102350.44;4824251;29;20122;-72
2021/11/09 06:28:17;;;;;;;57.13;22.13;;;10.60;99.90;;;10.74;84.17;102377.97;4824389;29;20099;-71
2021/11/09 06:30:48;;;;;;;52.08;21.15;;;10.60;99.90;;;10.70;84.62;102375.28;4824493;29;20348;-71
2021/11/09 06:33:17;;;;;;;53.13;22.33;;;10.50;99.90;;;10.78;84.22;102385.13;4824268;29;20107;-71
2021/11/09 06:35:45;;;;;;;58.17;23.23;;;10.60;99.90;;;10.55;84.43;102351.16;4824152;29;20458;-71
2021/11/09 06:38:15;;;;;;;56.72;23.05;;;10.60;99.90;;;10.70;84.83;102384.06;4807941;29;20092;-71
2021/11/09 06:40:44;;;;;;;52.72;23.10;;;10.50;99.90;;;10.70;84.96;102392.00;4824102;29;20091;-70
2021/11/09 06:43:12;;;;;;;55.78;23.13;;;10.50;99.90;;;10.79;85.08;102386.91;4824236;29;20468;-72
2021/11/09 06:45:41;;;;;;;62.85;23.35;;;10.50;99.90;;;10.76;84.79;102386.84;4824047;29;20053;-71
2021/11/09 06:48:09;;;;;;;67.75;24.25;;;10.50;99.90;;;10.82;84.80;102400.19;4823901;29;20489;-71
2021/11/09 06:50:38;;;;;;;66.03;24.95;;;10.60;99.90;;;10.79;84.47;102396.59;4823988;29;20111;-72
2021/11/09 06:53:07;;;;;;;63.95;24.52;;;10.60;99.90;;;10.74;85.00;102403.56;4823937;29;20580;-72
2021/11/09 06:55:37;;;;;;;62.95;24.63;;;10.50;99.90;;;10.73;85.40;102397.38;4823776;29;20107;-72
2021/11/09 06:58:06;;;;;;;61.20;24.65;;;10.50;99.90;;;10.86;85.16;102404.69;4823837;29;20050;-73
2021/11/09 07:00:36;;;;;;;64.07;26.00;;;10.60;99.90;;;10.79;85.19;102410.75;4824051;29;20076;-69
2021/11/09 07:03:05;;;;;;;79.25;27.70;;;10.60;99.90;;;10.83;85.53;102411.69;4823767;29;20050;-69
2021/11/09 07:05:33;;;;;;;72.55;27.90;;;10.60;99.90;;;10.71;85.94;102417.63;4807569;29;20576;-70
2021/11/09 07:08:02;;;;;;;83.90;28.23;;;10.60;99.90;;;10.69;86.25;102418.47;4824423;29;20103;-70
2021/11/09 07:10:30;;;;;;;75.05;30.23;;;10.50;99.90;;;10.72;86.35;102421.19;4827270;29;20133;-70
2021/11/09 07:13:00;;;;;;;78.78;31.02;;;10.60;99.90;;;10.71;86.58;102416.72;4827025;29;20046;-69
2021/11/09 07:15:28;;;;;;;79.53;31.33;;;10.50;99.90;;;10.43;86.79;102377.38;4827239;29;20413;-69
2021/11/09 07:17:57;;;;;;;87.82;32.03;;;10.50;99.90;;;10.71;87.10;102424.69;4826963;29;20693;-70
2021/11/09 07:20:26;;;;;;;82.57;31.25;;;10.50;99.90;;;10.73;87.10;102433.53;4827228;29;20062;-69
2021/11/09 07:22:54;;;;;;;87.30;31.65;;;10.60;99.90;;;10.74;87.27;102433.56;4827114;29;20489;-70
2021/11/09 07:25:23;;;;;;;77.43;31.83;;;10.60;99.90;;;10.80;87.12;102436.34;4827074;29;20128;-70
2021/11/09 07:27:51;;;;;;;87.72;31.55;;;10.60;99.90;;;10.63;87.42;102442.16;4825466;29;20577;-71
2021/11/09 07:30:22;;;;;;;72.18;28.45;;;10.50;99.90;;;10.83;87.67;102435.50;4826537;29;20050;-70
2021/11/09 07:32:51;;;;;;;63.80;27.15;;;10.60;99.90;;;10.77;87.76;102451.25;4826813;29;20107;-70
2021/11/09 07:35:19;;;;;;;71.10;27.92;;;10.60;99.90;;;10.73;87.96;102446.78;4826618;29;20061;-70
2021/11/09 07:37:48;;;;;;;72.78;27.60;;;10.60;99.90;;;10.80;88.08;102448.69;4827111;29;20054;-71
2021/11/09 07:40:17;;;;;;;66.95;26.85;;;10.60;99.90;;;10.76;88.10;102460.09;4826706;29;20138;-70
2021/11/09 07:42:48;;;;;;;69.82;27.27;;;10.60;99.90;;;10.80;88.50;102454.00;4826690;29;20115;-70
2021/11/09 07:45:21;;;;;;;69.78;27.58;;;10.60;99.90;;;10.80;87.98;102457.50;4826605;29;20050;-70
2021/11/09 07:47:50;;;;;;;72.88;28.65;;;10.60;99.90;;;10.78;88.48;102459.22;4826588;29;20074;-70
2021/11/09 07:50:19;;;;;;;67.03;29.00;;;10.60;99.90;;;10.87;88.49;102466.47;4826833;29;20109;-70
2021/11/09 07:52:49;;;;;;;67.40;26.25;;;10.70;99.90;;;10.15;88.34;102357.38;4826416;29;20046;-72
2021/11/09 07:55:18;;;;;;;63.88;26.00;;;10.70;99.90;;;11.00;88.52;102463.19;4826878;29;20055;-72
2021/11/09 07:57:50;;;;;;;72.80;26.30;;;10.70;99.90;;;10.88;88.09;102450.63;4826613;29;20121;-71
2021/11/09 08:00:24;;;;;;;59.55;26.35;;;10.80;99.90;;;10.85;89.00;102436.44;4826392;29;20127;-72
2021/11/09 08:03:07;;;;;;;64.70;24.40;;;10.70;99.90;;;11.01;88.90;102465.00;4826293;29;20126;-69
2021/11/09 08:05:42;;;;;;;63.40;25.90;;;10.80;99.90;;;10.95;88.92;102479.88;4826376;29;20511;-70
2021/11/09 08:08:13;;;;;;;67.53;25.35;;;10.80;99.90;;;10.97;89.31;102473.75;4826688;29;20106;-71
2021/11/09 08:10:42;;;;;;;55.92;24.45;;;10.80;99.90;;;11.11;89.27;102468.72;4826223;29;20050;-71
2021/11/09 08:13:10;;;;;;;59.95;24.75;;;10.90;99.90;;;11.06;89.34;102465.97;4826323;29;20070;-72
2021/11/09 08:15:40;;;;;;;54.70;24.25;;;10.90;99.90;;;10.69;89.45;102373.47;4826128;29;20081;-71
2021/11/09 08:18:13;;;;;;;62.55;23.40;;;11.00;99.90;;;11.23;89.20;102464.53;4826132;29;20050;-69
2021/11/09 08:20:58;;;;;;;57.60;24.13;;;11.00;99.90;;;11.28;89.58;102467.28;4825858;29;20420;-69
2021/11/09 08:23:27;;;;;;;59.95;23.48;;;11.10;99.90;;;10.79;89.41;102375.44;4825917;29;20532;-69
2021/11/09 08:25:56;;;;;;;53.38;22.73;;;11.10;99.90;;;11.39;89.72;102465.69;4826177;29;20099;-70
2021/11/09 08:28:24;;;;;;;54.97;23.40;;;11.20;99.90;;;11.44;89.56;102464.91;4825993;29;20456;-69
2021/11/09 08:31:01;;;;;;;62.25;23.63;;;11.20;99.90;;;11.50;89.46;102464.13;4826077;29;20054;-70
2021/11/09 08:33:30;;;;;;;65.32;24.13;;;11.20;99.90;;;11.60;88.84;102466.06;4825996;29;20481;-70
2021/11/09 08:36:02;;;;;;;58.85;24.10;;;11.30;99.90;;;11.60;88.49;102466.97;4825974;29;20048;-70
2021/11/09 08:38:32;;;;;;;61.03;23.50;;;11.30;99.90;;;11.56;88.57;102464.22;4825852;29;20489;-69
2021/11/09 08:41:02;;;;;;;62.27;22.70;;;11.30;99.90;;;11.48;88.71;102458.81;4826005;29;20042;-70
2021/11/09 08:43:34;;;;;;;50.05;21.08;;;11.30;99.90;;;11.49;88.77;102460.59;4825703;29;20356;-70
2021/11/09 08:46:11;;;;;;;54.95;22.55;;;11.30;99.90;;;11.49;88.88;102459.69;4825727;29;20464;-69
2021/11/09 08:48:43;;;;;;;51.88;21.92;;;11.30;99.90;;;11.55;88.89;102463.34;4826046;29;20140;-70
2021/11/09 08:51:12;;;;;;;60.30;23.05;;;11.30;99.90;;;11.60;88.70;102464.31;4825462;29;20358;-70
2021/11/09 08:53:44;;;;;;;59.72;24.17;;;11.30;99.90;;;11.58;88.50;102459.84;4825452;29;20133;-70
2021/11/09 09:04:27;;;;;;;66.32;22.42;;;11.30;99.90;;;11.54;88.74;102465.97;4825956;29;20046;-70
2021/11/09 09:06:59;;;;;;;58.55;22.20;;;11.30;99.90;;;11.62;88.72;102462.59;4825095;29;20447;-70
2021/11/09 09:09:28;;;;;;;56.22;22.38;;;11.40;99.90;;;11.70;88.47;102463.66;4825329;29;20055;-69
2021/11/09 09:11:56;;;;;;;53.50;20.42;;;11.40;99.90;;;11.79;88.48;102497.34;4825239;29;20046;-70
2021/11/09 09:14:26;;;;;;;51.47;22.38;;;11.50;99.90;;;11.77;88.08;102470.81;4825355;29;20124;-70
2021/11/09 09:16:56;;;;;;;61.13;22.73;;;11.50;99.90;;;11.80;88.05;102475.28;4825140;29;20050;-70
2021/11/09 09:19:27;;;;;;;56.80;21.88;;;11.60;99.90;;;10.69;87.53;102257.94;4825503;29;20119;-70
2021/11/09 09:22:03;;;;;;;54.33;21.70;;;11.60;99.90;;;11.85;87.63;102467.38;4825120;29;20102;-71
2021/11/09 09:24:41;;;;;;;57.63;22.45;;;11.60;99.90;;;11.89;87.81;102469.22;4825365;29;20046;-70
2021/11/09 09:27:19;;;;;;;55.70;21.77;;;11.70;99.90;;;11.89;88.30;102474.53;4825045;29;20042;-69
2021/11/09 09:52:18;;;;;;;57.60;22.17;;;11.80;99.90;;;12.03;87.05;102478.28;4825007;29;20130;-70
2021/11/09 09:57:41;;;;;;;50.70;19.63;;;11.80;99.90;;;12.06;87.80;102488.97;4802208;29;20111;-70
2021/11/09 10:00:11;;;;;;;53.70;20.50;;;11.80;99.90;;;11.99;88.32;102497.69;4823380;29;20508;-70
2021/11/09 10:02:52;;;;;;;48.40;18.85;;;11.80;99.90;;;11.94;88.61;102489.66;4825131;29;20050;-70
2021/11/09 10:05:23;;;;;;;;;;;11.80;99.90;;;12.00;88.83;102488.88;4825005;29;20138;-71
2021/11/09 10:07:54;;;;;;;45.25;19.85;;;11.80;99.90;;;12.06;88.75;102488.97;4824509;29;19924;-69
2021/11/09 10:10:27;;;;;;;50.20;19.95;;;11.80;99.90;;;12.04;88.71;102482.75;4824605;29;20137;-70
2021/11/09 10:13:00;;;;;;;53.70;20.38;;;11.80;99.90;;;12.08;88.41;102496.06;4808142;29;20061;-70
2021/11/09 10:15:32;;;;;;;50.50;19.60;;;11.80;99.90;;;11.99;88.70;102493.28;4824404;29;20059;-71
2021/11/09 10:18:04;;;;;;;49.75;19.90;;;11.80;99.90;;;12.02;89.18;102489.78;4824653;29;20145;-70
2021/11/09 10:20:37;;;;;;;48.83;19.17;;;11.80;99.90;;;11.99;89.43;102479.13;4824655;29;20050;-70
2021/11/09 10:23:10;;;;;;;49.92;20.90;;;11.70;99.90;;;12.02;89.68;102492.44;4824298;29;20451;-69
2021/11/09 10:25:39;;;;;;;57.65;22.15;;;11.80;99.90;;;12.09;89.76;102484.59;4824367;29;20053;-70
2021/11/09 10:28:15;;;;;;;44.70;20.10;;;11.80;99.90;;;12.02;89.92;102469.44;4824299;29;20050;-70
2021/11/09 10:30:46;;;;;;;51.20;19.80;;;11.80;99.90;;;11.99;90.28;102476.47;4823215;29;20510;-70
2021/11/09 10:33:19;;;;;;;56.30;21.10;;;11.80;99.90;;;11.95;90.83;102471.97;4824480;29;20137;-70
2021/11/09 10:35:49;;;;;;;46.63;19.52;;;11.70;99.90;;;12.12;91.04;102500.53;4824669;29;20046;-70
2021/11/09 10:38:18;;;;;;;54.67;22.13;;;11.80;99.90;;;12.16;91.06;102491.78;4824219;29;20566;-70
2021/11/09 10:40:51;;;;;;;54.22;22.10;;;11.90;99.90;;;12.16;90.88;102496.19;4823837;29;20050;-70
2021/11/09 10:43:24;;;;;;;46.53;21.42;;;11.90;99.90;;;12.12;90.98;102481.06;4826148;29;20055;-70
2021/11/09 10:45:53;;;;;;;57.80;22.05;;;11.90;99.90;;;11.76;91.14;102429.28;4828215;29;20054;-70
2021/11/09 10:48:23;;;;;;;55.45;21.23;;;12.00;99.90;;;12.15;91.32;102487.34;4827494;29;20042;-70
2021/11/09 10:50:55;;;;;;;;;;;11.90;99.90;;;12.24;90.83;102490.13;4828326;29;20046;-70
2021/11/09 10:53:32;;;;;;;63.53;22.52;;;12.00;99.90;;;12.20;90.56;102488.28;4827420;29;19925;-70
2021/11/09 10:56:13;;;;;;;57.65;22.15;;;12.00;99.90;;;12.18;90.49;102492.69;4827365;29;20491;-69
2021/11/09 10:59:04;;;;;;;59.88;23.92;;;12.00;99.90;;;12.22;90.73;102488.31;4827287;29;20074;-69
2021/11/09 11:04:14;;;;;;;66.13;24.30;;;12.00;99.90;;;12.20;90.91;102492.69;4827938;29;20051;-70
2021/11/09 11:06:47;;;;;;;67.25;24.58;;;12.00;99.90;;;12.19;90.97;102493.59;4827139;29;20053;-69
2021/11/09 11:09:21;;;;;;;58.35;23.90;;;11.90;99.90;;;12.19;91.21;102490.94;4827257;29;20524;-70
2021/11/09 11:12:09;;;;;;;56.85;24.48;;;11.90;99.90;;;12.00;91.08;102443.78;4827488;29;20054;-70
2021/11/09 11:14:40;;;;;;;60.58;24.08;;;12.00;99.90;;;12.23;90.99;102495.41;4827108;29;20103;-69
2021/11/09 11:17:12;;;;;;;63.33;24.73;;;12.00;99.90;;;12.17;90.87;102487.38;4827305;29;20062;-70
2021/11/09 11:19:44;;;;;;;67.47;24.15;;;12.00;99.90;;;12.10;90.83;102488.16;4827329;29;20050;-70
2021/11/09 11:22:17;;;;;;;54.63;22.48;;;12.00;99.90;;;12.05;91.26;102468.59;4827291;29;20374;-70
2021/11/09 11:24:47;;;;;;;61.42;23.75;;;11.90;99.90;;;11.93;91.11;102450.75;4827079;29;20054;-70
2021/11/09 11:27:17;;;;;;;51.67;22.73;;;12.00;99.90;;;12.12;91.39;102483.72;4826964;29;20497;-70
2021/11/09 11:29:46;;;;;;;49.03;22.27;;;11.90;99.90;;;12.21;91.47;102483.88;4826957;29;20054;-70
2021/11/09 11:32:24;;;;;;;58.33;22.70;;;12.00;99.90;;;12.16;91.19;102472.28;4827190;29;20503;-69
2021/11/09 11:34:53;;;;;;;56.17;22.55;;;12.00;99.90;;;12.27;91.15;102482.19;4826741;29;20088;-70
2021/11/09 11:37:23;;;;;;;51.40;21.10;;;12.00;99.90;;;12.21;91.02;102479.47;4826732;29;20537;-69
2021/11/09 11:39:58;;;;;;;54.10;21.70;;;12.00;99.90;;;12.24;90.80;102481.28;4826683;29;20451;-69
2021/11/09 11:42:26;;;;;;;50.83;21.73;;;12.00;99.90;;;12.24;90.54;102484.81;4826760;29;20129;-71
2021/11/09 11:45:00;;;;;;;50.63;21.13;;;12.00;99.90;;;12.25;90.67;102489.25;4826841;29;20130;-70
2021/11/09 11:47:29;;;;;;;59.67;22.27;;;12.00;99.90;;;12.19;90.54;102485.63;4826956;29;20053;-69
2021/11/09 11:49:59;;;;;;;58.03;22.80;;;12.00;99.90;;;12.21;90.96;102481.25;4826158;29;20042;-67
2021/11/09 11:52:32;;;;;;;56.30;24.65;;;12.00;99.90;;;12.17;91.01;102477.66;4826974;29;20478;-68
2021/11/09 11:55:22;;;;;;;57.95;23.23;;;12.00;99.90;;;12.12;91.26;102460.75;4825707;29;20042;-68
2021/11/09 11:57:54;;;;;;;56.70;24.67;;;12.00;99.90;;;12.19;91.73;102465.31;4826406;29;20120;-66